sensor_id;sensor_type;location;lat;lon;timestamp;temperature;humidity
15777;DHT22;7989;51.198;6.676;2022-08-19T00:00:49;20.50;99.90
15777;DHT22;7989;51.198;6.676;2022-08-19T00:03:16;20.50;99.90
15777;DHT22;7989;51.198;6.676;2022-08-19T00:05:44;20.50;99.90
15777;DHT22;7989;51.198;6.676;2022-08-19T00:08:11;20.50;99.90
15777;DHT22;7989;51.198;6.676;2022-08-19T00:10:38;20.50;99.90
15777;DHT22;7989;51.198;6.676;2022-08-19T00:13:05;20.40;99.90
15777;DHT22;7989;51.198;6.676;2022-08-19T00:15:32;20.40;99.90
15777;DHT22;7989;51.198;6.676;2022-08-19T00:17:59;20.30;99.90
15777;DHT22;7989;51.198;6.676;2022-08-19T00:20:26;20.40;99.90
15777;DHT22;7989;51.198;6.676;2022-08-19T00:22:54;20.40;99.90
15777;DHT22;7989;51.198;6.676;2022-08-19T00:25:21;20.30;99.90
15777;DHT22;7989;51.198;6.676;2022-08-19T00:27:49;20.30;99.90
15777;DHT22;7989;51.198;6.676;2022-08-19T00:30:16;20.30;99.90
15777;DHT22;7989;51.198;6.676;2022-08-19T00:32:43;20.20;99.90
15777;DHT22;7989;51.198;6.676;2022-08-19T00:35:10;20.30;99.90
15777;DHT22;7989;51.198;6.676;2022-08-19T00:37:37;20.30;99.90
15777;DHT22;7989;51.198;6.676;2022-08-19T00:40:11;20.20;99.90
15777;DHT22;7989;51.198;6.676;2022-08-19T00:42:39;20.20;99.90
15777;DHT22;7989;51.198;6.676;2022-08-19T00:45:10;20.10;99.90
15777;DHT22;7989;51.198;6.676;2022-08-19T00:47:38;20.10;99.90
15777;DHT22;7989;51.198;6.676;2022-08-19T00:50:05;20.10;99.90
15777;DHT22;7989;51.198;6.676;2022-08-19T00:52:38;20.00;99.90
15777;DHT22;7989;51.198;6.676;2022-08-19T00:55:07;20.10;99.90
15777;DHT22;7989;51.198;6.676;2022-08-19T00:57:38;20.00;99.90
15777;DHT22;7989;51.198;6.676;2022-08-19T01:00:09;20.00;99.90
15777;DHT22;7989;51.198;6.676;2022-08-19T01:02:36;20.00;99.90
15777;DHT22;7989;51.198;6.676;2022-08-19T01:05:08;20.00;99.90
15777;DHT22;7989;51.198;6.676;2022-08-19T01:07:37;20.00;99.90
15777;DHT22;7989;51.198;6.676;2022-08-19T01:10:08;20.00;99.90
15777;DHT22;7989;51.198;6.676;2022-08-19T01:12:37;19.90;99.90
15777;DHT22;7989;51.198;6.676;2022-08-19T01:15:06;19.90;99.90
15777;DHT22;7989;51.198;6.676;2022-08-19T01:17:33;19.80;99.90
15777;DHT22;7989;51.198;6.676;2022-08-19T01:20:02;19.80;99.90
15777;DHT22;7989;51.198;6.676;2022-08-19T01:22:32;19.80;99.90
15777;DHT22;7989;51.198;6.676;2022-08-19T01:25:03;19.80;99.90
15777;DHT22;7989;51.198;6.676;2022-08-19T01:27:37;19.80;99.90
15777;DHT22;7989;51.198;6.676;2022-08-19T01:30:07;19.80;99.90
15777;DHT22;7989;51.198;6.676;2022-08-19T01:32:34;19.80;99.90
15777;DHT22;7989;51.198;6.676;2022-08-19T01:35:02;19.80;99.90
15777;DHT22;7989;51.198;6.676;2022-08-19T01:37:42;19.70;99.90
15777;DHT22;7989;51.198;6.676;2022-08-19T01:40:10;19.70;99.90
15777;DHT22;7989;51.198;6.676;2022-08-19T01:42:37;19.60;99.90
15777;DHT22;7989;51.198;6.676;2022-08-19T01:45:04;19.60;99.90
15777;DHT22;7989;51.198;6.676;2022-08-19T01:47:34;19.60;99.90
15777;DHT22;7989;51.198;6.676;2022-08-19T01:50:00;19.60;99.90
15777;DHT22;7989;51.198;6.676;2022-08-19T01:52:27;19.50;99.90
15777;DHT22;7989;51.198;6.676;2022-08-19T01:54:56;19.60;99.90
15777;DHT22;7989;51.198;6.676;2022-08-19T01:57:23;19.60;99.90
15777;DHT22;7989;51.198;6.676;2022-08-19T01:59:49;19.60;99.90
15777;DHT22;7989;51.198;6.676;2022-08-19T02:02:17;19.60;99.90
15777;DHT22;7989;51.198;6.676;2022-08-19T02:04:43;19.60;99.90
15777;DHT22;7989;51.198;6.676;2022-08-19T02:07:11;19.60;99.90
15777;DHT22;7989;51.198;6.676;2022-08-19T02:09:38;19.50;99.90
15777;DHT22;7989;51.198;6.676;2022-08-19T02:12:07;19.50;99.90
15777;DHT22;7989;51.198;6.676;2022-08-19T02:14:34;19.50;99.90
15777;DHT22;7989;51.198;6.676;2022-08-19T02:17:01;19.40;99.90
15777;DHT22;7989;51.198;6.676;2022-08-19T02:19:28;19.40;99.90
15777;DHT22;7989;51.198;6.676;2022-08-19T02:21:55;19.30;99.90
15777;DHT22;7989;51.198;6.676;2022-08-19T02:24:22;19.30;99.90
15777;DHT22;7989;51.198;6.676;2022-08-19T02:26:49;19.30;99.90
15777;DHT22;7989;51.198;6.676;2022-08-19T02:29:17;19.40;99.90
15777;DHT22;7989;51.198;6.676;2022-08-19T02:31:44;19.40;99.90
15777;DHT22;7989;51.198;6.676;2022-08-19T02:34:11;19.30;99.90
15777;DHT22;7989;51.198;6.676;2022-08-19T02:36:39;19.20;99.90
15777;DHT22;7989;51.198;6.676;2022-08-19T02:39:06;19.20;99.90
15777;DHT22;7989;51.198;6.676;2022-08-19T02:41:33;19.20;99.90
15777;DHT22;7989;51.198;6.676;2022-08-19T02:44:02;19.30;99.90
15777;DHT22;7989;51.198;6.676;2022-08-19T02:46:33;19.30;99.90
15777;DHT22;7989;51.198;6.676;2022-08-19T02:49:03;19.30;99.90
15777;DHT22;7989;51.198;6.676;2022-08-19T02:51:33;19.30;99.90
15777;DHT22;7989;51.198;6.676;2022-08-19T02:54:01;19.30;99.90
15777;DHT22;7989;51.198;6.676;2022-08-19T02:56:29;19.20;99.90
15777;DHT22;7989;51.198;6.676;2022-08-19T02:58:56;19.20;99.90
15777;DHT22;7989;51.198;6.676;2022-08-19T03:01:26;19.20;99.90
15777;DHT22;7989;51.198;6.676;2022-08-19T03:03:58;19.20;99.90
15777;DHT22;7989;51.198;6.676;2022-08-19T03:06:25;19.10;99.90
15777;DHT22;7989;51.198;6.676;2022-08-19T03:08:53;19.00;99.90
15777;DHT22;7989;51.198;6.676;2022-08-19T03:11:22;19.10;99.90
15777;DHT22;7989;51.198;6.676;2022-08-19T03:13:50;19.00;99.90
15777;DHT22;7989;51.198;6.676;2022-08-19T03:16:18;19.00;99.90
15777;DHT22;7989;51.198;6.676;2022-08-19T03:18:45;19.00;99.90
15777;DHT22;7989;51.198;6.676;2022-08-19T03:21:17;19.00;99.90
15777;DHT22;7989;51.198;6.676;2022-08-19T03:23:45;19.00;99.90
15777;DHT22;7989;51.198;6.676;2022-08-19T03:26:12;19.00;99.90
15777;DHT22;7989;51.198;6.676;2022-08-19T03:28:40;19.00;99.90
15777;DHT22;7989;51.198;6.676;2022-08-19T03:31:10;18.90;99.90
15777;DHT22;7989;51.198;6.676;2022-08-19T03:33:38;18.90;99.90
15777;DHT22;7989;51.198;6.676;2022-08-19T03:36:08;18.70;99.90
15777;DHT22;7989;51.198;6.676;2022-08-19T03:38:39;18.70;99.90
15777;DHT22;7989;51.198;6.676;2022-08-19T03:41:07;18.80;99.90
15777;DHT22;7989;51.198;6.676;2022-08-19T03:43:36;18.80;99.90
15777;DHT22;7989;51.198;6.676;2022-08-19T03:46:05;18.80;99.90
15777;DHT22;7989;51.198;6.676;2022-08-19T03:48:33;18.70;99.90
15777;DHT22;7989;51.198;6.676;2022-08-19T03:51:00;18.70;99.90
15777;DHT22;7989;51.198;6.676;2022-08-19T03:53:29;18.70;99.90
15777;DHT22;7989;51.198;6.676;2022-08-19T03:55:58;18.80;99.90
15777;DHT22;7989;51.198;6.676;2022-08-19T03:58:27;18.80;99.90
15777;DHT22;7989;51.198;6.676;2022-08-19T04:00:54;18.80;99.90
15777;DHT22;7989;51.198;6.676;2022-08-19T04:03:22;18.70;99.90
15777;DHT22;7989;51.198;6.676;2022-08-19T04:05:50;18.80;99.90
15777;DHT22;7989;51.198;6.676;2022-08-19T04:08:17;18.70;99.90
15777;DHT22;7989;51.198;6.676;2022-08-19T04:10:46;18.70;99.90
15777;DHT22;7989;51.198;6.676;2022-08-19T04:13:14;18.70;99.90
15777;DHT22;7989;51.198;6.676;2022-08-19T04:15:42;18.70;99.90
15777;DHT22;7989;51.198;6.676;2022-08-19T04:18:10;18.70;99.90
15777;DHT22;7989;51.198;6.676;2022-08-19T04:20:42;18.70;99.90
15777;DHT22;7989;51.198;6.676;2022-08-19T04:23:10;18.80;99.90
15777;DHT22;7989;51.198;6.676;2022-08-19T04:25:38;18.80;99.90
15777;DHT22;7989;51.198;6.676;2022-08-19T04:28:06;18.70;99.90
15777;DHT22;7989;51.198;6.676;2022-08-19T04:30:39;18.70;99.90
15777;DHT22;7989;51.198;6.676;2022-08-19T04:33:07;18.70;99.90
15777;DHT22;7989;51.198;6.676;2022-08-19T04:35:36;18.60;99.90
15777;DHT22;7989;51.198;6.676;2022-08-19T04:38:03;18.60;99.90
15777;DHT22;7989;51.198;6.676;2022-08-19T04:40:30;18.60;99.90
15777;DHT22;7989;51.198;6.676;2022-08-19T04:43:14;18.60;99.90
15777;DHT22;7989;51.198;6.676;2022-08-19T04:45:43;18.60;99.90
15777;DHT22;7989;51.198;6.676;2022-08-19T04:48:10;18.50;99.90
15777;DHT22;7989;51.198;6.676;2022-08-19T04:50:40;18.50;99.90
15777;DHT22;7989;51.198;6.676;2022-08-19T04:53:07;18.50;99.90
15777;DHT22;7989;51.198;6.676;2022-08-19T04:55:34;18.50;99.90
15777;DHT22;7989;51.198;6.676;2022-08-19T04:58:01;18.50;99.90
15777;DHT22;7989;51.198;6.676;2022-08-19T05:00:29;18.60;99.90
15777;DHT22;7989;51.198;6.676;2022-08-19T05:02:57;18.60;99.90
15777;DHT22;7989;51.198;6.676;2022-08-19T05:05:24;18.50;99.90
15777;DHT22;7989;51.198;6.676;2022-08-19T05:07:50;18.50;99.90
15777;DHT22;7989;51.198;6.676;2022-08-19T05:10:17;18.60;99.90
15777;DHT22;7989;51.198;6.676;2022-08-19T05:12:44;18.70;99.90
15777;DHT22;7989;51.198;6.676;2022-08-19T05:15:11;18.80;99.90
15777;DHT22;7989;51.198;6.676;2022-08-19T05:17:38;18.80;99.90
15777;DHT22;7989;51.198;6.676;2022-08-19T05:20:28;18.90;99.90
15777;DHT22;7989;51.198;6.676;2022-08-19T05:23:21;18.90;99.90
15777;DHT22;7989;51.198;6.676;2022-08-19T05:25:47;18.90;99.90
15777;DHT22;7989;51.198;6.676;2022-08-19T05:28:14;18.90;99.90
15777;DHT22;7989;51.198;6.676;2022-08-19T05:30:41;18.90;99.90
15777;DHT22;7989;51.198;6.676;2022-08-19T05:33:10;19.00;99.90
15777;DHT22;7989;51.198;6.676;2022-08-19T05:35:39;19.10;99.90
15777;DHT22;7989;51.198;6.676;2022-08-19T05:38:07;19.30;99.90
15777;DHT22;7989;51.198;6.676;2022-08-19T05:40:34;19.30;99.90
15777;DHT22;7989;51.198;6.676;2022-08-19T05:43:02;19.40;99.90
15777;DHT22;7989;51.198;6.676;2022-08-19T05:45:29;19.50;99.90
15777;DHT22;7989;51.198;6.676;2022-08-19T05:47:56;19.70;99.90
15777;DHT22;7989;51.198;6.676;2022-08-19T05:50:23;19.90;99.90
15777;DHT22;7989;51.198;6.676;2022-08-19T05:52:53;19.80;99.90
15777;DHT22;7989;51.198;6.676;2022-08-19T05:55:20;19.70;99.90
15777;DHT22;7989;51.198;6.676;2022-08-19T05:57:49;19.80;99.90
15777;DHT22;7989;51.198;6.676;2022-08-19T06:00:16;19.90;99.90
15777;DHT22;7989;51.198;6.676;2022-08-19T06:02:43;19.90;99.90
15777;DHT22;7989;51.198;6.676;2022-08-19T06:05:10;20.00;99.90
15777;DHT22;7989;51.198;6.676;2022-08-19T06:07:38;20.00;99.90
15777;DHT22;7989;51.198;6.676;2022-08-19T06:10:09;20.00;99.90
15777;DHT22;7989;51.198;6.676;2022-08-19T06:12:37;20.00;99.90
15777;DHT22;7989;51.198;6.676;2022-08-19T06:15:06;20.00;99.90
15777;DHT22;7989;51.198;6.676;2022-08-19T06:17:34;20.10;99.90
15777;DHT22;7989;51.198;6.676;2022-08-19T06:20:01;20.30;99.90
15777;DHT22;7989;51.198;6.676;2022-08-19T06:22:29;20.40;99.90
15777;DHT22;7989;51.198;6.676;2022-08-19T06:24:56;20.70;99.90
15777;DHT22;7989;51.198;6.676;2022-08-19T06:27:24;21.60;99.90
15777;DHT22;7989;51.198;6.676;2022-08-19T06:29:51;22.70;99.90
15777;DHT22;7989;51.198;6.676;2022-08-19T06:32:18;23.60;99.90
15777;DHT22;7989;51.198;6.676;2022-08-19T06:34:45;22.80;99.90
15777;DHT22;7989;51.198;6.676;2022-08-19T06:37:12;22.50;99.90
15777;DHT22;7989;51.198;6.676;2022-08-19T06:39:41;22.10;99.90
15777;DHT22;7989;51.198;6.676;2022-08-19T06:42:08;23.00;99.90
15777;DHT22;7989;51.198;6.676;2022-08-19T06:44:40;24.40;99.90
15777;DHT22;7989;51.198;6.676;2022-08-19T06:47:09;25.70;99.90
15777;DHT22;7989;51.198;6.676;2022-08-19T06:49:36;25.70;99.90
15777;DHT22;7989;51.198;6.676;2022-08-19T06:52:04;24.50;99.90
15777;DHT22;7989;51.198;6.676;2022-08-19T06:54:31;23.50;99.90
15777;DHT22;7989;51.198;6.676;2022-08-19T06:57:00;23.00;99.90
15777;DHT22;7989;51.198;6.676;2022-08-19T06:59:28;22.70;99.90
15777;DHT22;7989;51.198;6.676;2022-08-19T07:02:00;22.90;99.90
15777;DHT22;7989;51.198;6.676;2022-08-19T07:04:32;23.30;99.90
15777;DHT22;7989;51.198;6.676;2022-08-19T07:07:00;23.80;99.90
15777;DHT22;7989;51.198;6.676;2022-08-19T07:09:28;23.80;99.90
15777;DHT22;7989;51.198;6.676;2022-08-19T07:11:55;23.80;99.90
15777;DHT22;7989;51.198;6.676;2022-08-19T07:14:23;23.50;99.90
15777;DHT22;7989;51.198;6.676;2022-08-19T07:16:52;23.30;99.90
15777;DHT22;7989;51.198;6.676;2022-08-19T07:19:23;23.20;99.90
15777;DHT22;7989;51.198;6.676;2022-08-19T07:21:52;23.60;99.90
15777;DHT22;7989;51.198;6.676;2022-08-19T07:24:20;23.60;99.90
15777;DHT22;7989;51.198;6.676;2022-08-19T07:26:50;24.10;99.90
15777;DHT22;7989;51.198;6.676;2022-08-19T07:29:18;24.40;99.90
15777;DHT22;7989;51.198;6.676;2022-08-19T07:31:47;25.50;99.90
15777;DHT22;7989;51.198;6.676;2022-08-19T07:34:14;25.20;99.90
15777;DHT22;7989;51.198;6.676;2022-08-19T07:36:43;26.20;99.90
15777;DHT22;7989;51.198;6.676;2022-08-19T07:39:13;27.20;99.90
15777;DHT22;7989;51.198;6.676;2022-08-19T07:41:40;26.80;99.90
15777;DHT22;7989;51.198;6.676;2022-08-19T07:44:07;25.60;99.90
15777;DHT22;7989;51.198;6.676;2022-08-19T07:46:36;24.90;99.90
15777;DHT22;7989;51.198;6.676;2022-08-19T07:49:05;24.30;99.90
15777;DHT22;7989;51.198;6.676;2022-08-19T07:51:32;24.10;99.90
15777;DHT22;7989;51.198;6.676;2022-08-19T07:54:01;23.70;99.90
15777;DHT22;7989;51.198;6.676;2022-08-19T07:56:27;23.60;99.90
15777;DHT22;7989;51.198;6.676;2022-08-19T07:58:54;23.50;99.90
15777;DHT22;7989;51.198;6.676;2022-08-19T08:01:24;23.50;99.90
15777;DHT22;7989;51.198;6.676;2022-08-19T08:03:55;23.60;99.90
15777;DHT22;7989;51.198;6.676;2022-08-19T08:06:39;23.90;99.90
15777;DHT22;7989;51.198;6.676;2022-08-19T08:09:32;24.10;99.90
15777;DHT22;7989;51.198;6.676;2022-08-19T08:12:02;24.40;99.90
15777;DHT22;7989;51.198;6.676;2022-08-19T08:14:32;24.40;99.90
15777;DHT22;7989;51.198;6.676;2022-08-19T08:17:01;24.30;99.90
15777;DHT22;7989;51.198;6.676;2022-08-19T08:19:28;24.20;99.90
15777;DHT22;7989;51.198;6.676;2022-08-19T08:21:57;24.40;99.90
15777;DHT22;7989;51.198;6.676;2022-08-19T08:24:24;24.60;99.90
15777;DHT22;7989;51.198;6.676;2022-08-19T08:26:53;24.80;99.90
15777;DHT22;7989;51.198;6.676;2022-08-19T08:29:20;24.90;99.90
15777;DHT22;7989;51.198;6.676;2022-08-19T08:31:47;24.80;99.90
15777;DHT22;7989;51.198;6.676;2022-08-19T08:34:14;24.80;99.90
15777;DHT22;7989;51.198;6.676;2022-08-19T08:36:43;24.60;99.90
15777;DHT22;7989;51.198;6.676;2022-08-19T08:39:12;24.40;99.90
15777;DHT22;7989;51.198;6.676;2022-08-19T08:41:46;24.40;99.90
15777;DHT22;7989;51.198;6.676;2022-08-19T08:44:20;24.50;99.90
15777;DHT22;7989;51.198;6.676;2022-08-19T08:46:50;24.40;99.90
15777;DHT22;7989;51.198;6.676;2022-08-19T08:49:26;24.40;99.90
15777;DHT22;7989;51.198;6.676;2022-08-19T08:52:00;24.50;99.90
15777;DHT22;7989;51.198;6.676;2022-08-19T08:54:34;25.00;99.90
15777;DHT22;7989;51.198;6.676;2022-08-19T08:57:04;25.40;99.90
15777;DHT22;7989;51.198;6.676;2022-08-19T08:59:37;25.60;99.90
15777;DHT22;7989;51.198;6.676;2022-08-19T09:02:06;25.70;99.90
15777;DHT22;7989;51.198;6.676;2022-08-19T09:04:34;25.70;99.90
15777;DHT22;7989;51.198;6.676;2022-08-19T09:07:16;25.50;99.90
15777;DHT22;7989;51.198;6.676;2022-08-19T09:09:49;25.50;99.90
15777;DHT22;7989;51.198;6.676;2022-08-19T09:12:22;25.40;99.90
15777;DHT22;7989;51.198;6.676;2022-08-19T09:14:54;25.50;99.90
15777;DHT22;7989;51.198;6.676;2022-08-19T09:17:24;25.40;99.90
15777;DHT22;7989;51.198;6.676;2022-08-19T09:19:57;25.30;99.90
15777;DHT22;7989;51.198;6.676;2022-08-19T09:22:25;25.30;99.90
15777;DHT22;7989;51.198;6.676;2022-08-19T09:24:53;25.40;99.90
15777;DHT22;7989;51.198;6.676;2022-08-19T09:27:21;25.60;99.90
15777;DHT22;7989;51.198;6.676;2022-08-19T09:29:49;25.70;99.90
15777;DHT22;7989;51.198;6.676;2022-08-19T09:32:17;26.20;99.90
15777;DHT22;7989;51.198;6.676;2022-08-19T09:34:44;26.40;99.90
15777;DHT22;7989;51.198;6.676;2022-08-19T09:37:12;26.80;99.90
15777;DHT22;7989;51.198;6.676;2022-08-19T09:39:40;26.70;99.90
15777;DHT22;7989;51.198;6.676;2022-08-19T09:42:08;26.70;99.90
15777;DHT22;7989;51.198;6.676;2022-08-19T09:44:37;26.60;99.90
15777;DHT22;7989;51.198;6.676;2022-08-19T09:47:04;26.70;99.90
15777;DHT22;7989;51.198;6.676;2022-08-19T09:49:34;26.70;99.90
15777;DHT22;7989;51.198;6.676;2022-08-19T09:52:01;26.70;99.90
15777;DHT22;7989;51.198;6.676;2022-08-19T09:54:28;26.80;99.90
15777;DHT22;7989;51.198;6.676;2022-08-19T09:56:55;26.70;99.90
15777;DHT22;7989;51.198;6.676;2022-08-19T09:59:25;26.50;99.90
15777;DHT22;7989;51.198;6.676;2022-08-19T10:01:53;26.50;99.90
15777;DHT22;7989;51.198;6.676;2022-08-19T10:04:20;26.30;99.90
15777;DHT22;7989;51.198;6.676;2022-08-19T10:06:50;26.60;99.90
15777;DHT22;7989;51.198;6.676;2022-08-19T10:09:17;26.80;99.90
15777;DHT22;7989;51.198;6.676;2022-08-19T10:11:45;27.00;99.90
15777;DHT22;7989;51.198;6.676;2022-08-19T10:14:13;26.90;99.90
15777;DHT22;7989;51.198;6.676;2022-08-19T10:16:40;26.90;99.90
15777;DHT22;7989;51.198;6.676;2022-08-19T10:19:08;26.90;99.90
15777;DHT22;7989;51.198;6.676;2022-08-19T10:21:35;26.90;99.90
15777;DHT22;7989;51.198;6.676;2022-08-19T10:24:05;27.10;99.90
15777;DHT22;7989;51.198;6.676;2022-08-19T10:26:36;27.20;99.90
15777;DHT22;7989;51.198;6.676;2022-08-19T10:29:04;27.00;99.90
15777;DHT22;7989;51.198;6.676;2022-08-19T10:31:33;27.00;99.90
15777;DHT22;7989;51.198;6.676;2022-08-19T10:34:01;27.10;99.90
15777;DHT22;7989;51.198;6.676;2022-08-19T10:36:29;27.30;99.90
15777;DHT22;7989;51.198;6.676;2022-08-19T10:38:58;27.40;99.90
15777;DHT22;7989;51.198;6.676;2022-08-19T10:41:29;27.20;99.90
15777;DHT22;7989;51.198;6.676;2022-08-19T10:43:58;27.20;99.90
15777;DHT22;7989;51.198;6.676;2022-08-19T10:46:26;27.20;99.90
15777;DHT22;7989;51.198;6.676;2022-08-19T10:48:59;27.10;99.90
15777;DHT22;7989;51.198;6.676;2022-08-19T10:51:26;27.10;99.90
15777;DHT22;7989;51.198;6.676;2022-08-19T10:54:10;26.90;99.90
15777;DHT22;7989;51.198;6.676;2022-08-19T10:56:39;26.90;99.90
15777;DHT22;7989;51.198;6.676;2022-08-19T10:59:18;27.20;99.90
15777;DHT22;7989;51.198;6.676;2022-08-19T11:01:46;27.30;99.90
15777;DHT22;7989;51.198;6.676;2022-08-19T11:04:13;27.30;99.90
15777;DHT22;7989;51.198;6.676;2022-08-19T11:06:43;27.10;99.90
15777;DHT22;7989;51.198;6.676;2022-08-19T11:09:11;27.20;99.90
15777;DHT22;7989;51.198;6.676;2022-08-19T11:11:39;27.40;99.90
15777;DHT22;7989;51.198;6.676;2022-08-19T11:14:07;27.30;99.90
15777;DHT22;7989;51.198;6.676;2022-08-19T11:16:35;26.90;99.90
15777;DHT22;7989;51.198;6.676;2022-08-19T11:19:03;26.70;99.90
15777;DHT22;7989;51.198;6.676;2022-08-19T11:21:32;26.80;99.90
15777;DHT22;7989;51.198;6.676;2022-08-19T11:24:01;27.00;99.90
15777;DHT22;7989;51.198;6.676;2022-08-19T11:26:30;27.30;99.90
15777;DHT22;7989;51.198;6.676;2022-08-19T11:28:59;27.30;99.90
15777;DHT22;7989;51.198;6.676;2022-08-19T11:31:28;27.40;99.90
15777;DHT22;7989;51.198;6.676;2022-08-19T11:33:56;27.70;99.90
15777;DHT22;7989;51.198;6.676;2022-08-19T11:36:23;27.90;99.90
15777;DHT22;7989;51.198;6.676;2022-08-19T11:38:50;28.30;99.90
15777;DHT22;7989;51.198;6.676;2022-08-19T11:41:19;28.50;99.90
15777;DHT22;7989;51.198;6.676;2022-08-19T11:43:46;28.40;99.90
15777;DHT22;7989;51.198;6.676;2022-08-19T11:46:16;27.90;99.90
15777;DHT22;7989;51.198;6.676;2022-08-19T11:48:43;27.40;99.90
15777;DHT22;7989;51.198;6.676;2022-08-19T11:51:12;27.70;99.90
15777;DHT22;7989;51.198;6.676;2022-08-19T11:53:39;27.70;99.90
15777;DHT22;7989;51.198;6.676;2022-08-19T11:56:08;27.60;99.90
15777;DHT22;7989;51.198;6.676;2022-08-19T11:58:36;27.30;99.90
15777;DHT22;7989;51.198;6.676;2022-08-19T12:01:05;27.10;99.90
15777;DHT22;7989;51.198;6.676;2022-08-19T12:03:35;27.40;99.90
15777;DHT22;7989;51.198;6.676;2022-08-19T12:06:04;27.90;99.90
15777;DHT22;7989;51.198;6.676;2022-08-19T12:08:31;27.90;99.90
15777;DHT22;7989;51.198;6.676;2022-08-19T12:10:58;28.20;99.90
15777;DHT22;7989;51.198;6.676;2022-08-19T12:13:26;28.40;99.90
15777;DHT22;7989;51.198;6.676;2022-08-19T12:15:53;28.80;99.90
15777;DHT22;7989;51.198;6.676;2022-08-19T12:18:23;29.00;99.90
15777;DHT22;7989;51.198;6.676;2022-08-19T12:20:53;28.80;99.90
15777;DHT22;7989;51.198;6.676;2022-08-19T12:23:21;29.00;99.90
15777;DHT22;7989;51.198;6.676;2022-08-19T12:25:49;29.20;99.90
15777;DHT22;7989;51.198;6.676;2022-08-19T12:28:18;29.60;99.90
15777;DHT22;7989;51.198;6.676;2022-08-19T12:30:45;29.90;99.90
15777;DHT22;7989;51.198;6.676;2022-08-19T12:33:12;29.90;99.90
15777;DHT22;7989;51.198;6.676;2022-08-19T12:35:40;30.00;99.90
15777;DHT22;7989;51.198;6.676;2022-08-19T12:38:09;30.10;99.90
15777;DHT22;7989;51.198;6.676;2022-08-19T12:40:36;30.30;99.90
15777;DHT22;7989;51.198;6.676;2022-08-19T12:43:03;30.60;99.90
15777;DHT22;7989;51.198;6.676;2022-08-19T12:45:30;30.60;99.90
15777;DHT22;7989;51.198;6.676;2022-08-19T12:47:56;30.80;99.90
15777;DHT22;7989;51.198;6.676;2022-08-19T12:50:23;30.70;99.90
15777;DHT22;7989;51.198;6.676;2022-08-19T12:52:51;30.80;99.90
15777;DHT22;7989;51.198;6.676;2022-08-19T12:55:19;30.40;99.90
15777;DHT22;7989;51.198;6.676;2022-08-19T12:57:46;30.30;99.90
15777;DHT22;7989;51.198;6.676;2022-08-19T13:00:16;30.00;99.90
15777;DHT22;7989;51.198;6.676;2022-08-19T13:02:45;30.40;99.90
15777;DHT22;7989;51.198;6.676;2022-08-19T13:05:14;31.00;99.90
15777;DHT22;7989;51.198;6.676;2022-08-19T13:07:41;31.40;99.90
15777;DHT22;7989;51.198;6.676;2022-08-19T13:10:11;31.40;99.90
15777;DHT22;7989;51.198;6.676;2022-08-19T13:12:39;31.10;99.90
15777;DHT22;7989;51.198;6.676;2022-08-19T13:15:08;30.50;99.90
15777;DHT22;7989;51.198;6.676;2022-08-19T13:17:35;30.70;99.90
15777;DHT22;7989;51.198;6.676;2022-08-19T13:20:02;31.10;99.90
15777;DHT22;7989;51.198;6.676;2022-08-19T13:22:29;30.60;99.90
15777;DHT22;7989;51.198;6.676;2022-08-19T13:24:57;31.20;99.90
15777;DHT22;7989;51.198;6.676;2022-08-19T13:27:24;31.40;99.90
15777;DHT22;7989;51.198;6.676;2022-08-19T13:29:52;31.30;99.90
15777;DHT22;7989;51.198;6.676;2022-08-19T13:32:36;31.50;99.90
15777;DHT22;7989;51.198;6.676;2022-08-19T13:35:20;31.50;99.80
15777;DHT22;7989;51.198;6.676;2022-08-19T13:37:47;30.80;99.70
15777;DHT22;7989;51.198;6.676;2022-08-19T13:40:16;30.00;99.90
15777;DHT22;7989;51.198;6.676;2022-08-19T13:42:45;30.60;99.90
15777;DHT22;7989;51.198;6.676;2022-08-19T13:45:15;30.70;99.90
15777;DHT22;7989;51.198;6.676;2022-08-19T13:47:45;30.70;99.90
15777;DHT22;7989;51.198;6.676;2022-08-19T13:50:13;30.40;99.90
15777;DHT22;7989;51.198;6.676;2022-08-19T13:52:41;30.70;99.90
15777;DHT22;7989;51.198;6.676;2022-08-19T13:55:09;30.80;98.20
15777;DHT22;7989;51.198;6.676;2022-08-19T13:57:36;30.60;97.90
15777;DHT22;7989;51.198;6.676;2022-08-19T14:00:06;30.50;98.30
15777;DHT22;7989;51.198;6.676;2022-08-19T14:02:36;30.90;97.80
15777;DHT22;7989;51.198;6.676;2022-08-19T14:05:05;30.40;97.40
15777;DHT22;7989;51.198;6.676;2022-08-19T14:07:32;30.00;98.20
15777;DHT22;7989;51.198;6.676;2022-08-19T14:09:59;30.30;98.20
15777;DHT22;7989;51.198;6.676;2022-08-19T14:12:26;30.70;97.00
15777;DHT22;7989;51.198;6.676;2022-08-19T14:14:53;31.00;96.60
15777;DHT22;7989;51.198;6.676;2022-08-19T14:17:19;31.10;96.00
15777;DHT22;7989;51.198;6.676;2022-08-19T14:19:48;31.10;95.80
15777;DHT22;7989;51.198;6.676;2022-08-19T14:22:15;30.90;95.70
15777;DHT22;7989;51.198;6.676;2022-08-19T14:24:41;30.40;95.30
15777;DHT22;7989;51.198;6.676;2022-08-19T14:27:08;30.50;95.20
15777;DHT22;7989;51.198;6.676;2022-08-19T14:29:35;30.60;95.30
15777;DHT22;7989;51.198;6.676;2022-08-19T14:32:03;30.30;95.90
15777;DHT22;7989;51.198;6.676;2022-08-19T14:34:30;30.20;96.10
15777;DHT22;7989;51.198;6.676;2022-08-19T14:37:00;29.80;97.00
15777;DHT22;7989;51.198;6.676;2022-08-19T14:39:27;29.90;95.90
15777;DHT22;7989;51.198;6.676;2022-08-19T14:41:54;30.20;97.70
15777;DHT22;7989;51.198;6.676;2022-08-19T14:44:21;30.30;97.80
15777;DHT22;7989;51.198;6.676;2022-08-19T14:46:48;30.30;97.90
15777;DHT22;7989;51.198;6.676;2022-08-19T14:49:15;30.00;98.60
15777;DHT22;7989;51.198;6.676;2022-08-19T14:51:43;29.80;98.70
15777;DHT22;7989;51.198;6.676;2022-08-19T14:54:13;29.60;99.00
15777;DHT22;7989;51.198;6.676;2022-08-19T14:56:40;29.60;98.90
15777;DHT22;7989;51.198;6.676;2022-08-19T14:59:07;29.60;99.30
15777;DHT22;7989;51.198;6.676;2022-08-19T15:01:34;29.30;98.70
15777;DHT22;7989;51.198;6.676;2022-08-19T15:04:01;29.20;99.40
15777;DHT22;7989;51.198;6.676;2022-08-19T15:06:28;28.90;99.90
15777;DHT22;7989;51.198;6.676;2022-08-19T15:08:55;28.70;99.90
15777;DHT22;7989;51.198;6.676;2022-08-19T15:11:25;28.80;99.90
15777;DHT22;7989;51.198;6.676;2022-08-19T15:13:53;29.00;99.90
15777;DHT22;7989;51.198;6.676;2022-08-19T15:16:21;29.00;99.90
15777;DHT22;7989;51.198;6.676;2022-08-19T15:18:50;28.50;99.90
15777;DHT22;7989;51.198;6.676;2022-08-19T15:21:18;28.10;99.90
15777;DHT22;7989;51.198;6.676;2022-08-19T15:23:45;27.90;99.90
15777;DHT22;7989;51.198;6.676;2022-08-19T15:26:13;27.90;99.90
15777;DHT22;7989;51.198;6.676;2022-08-19T15:28:42;28.00;99.90
15777;DHT22;7989;51.198;6.676;2022-08-19T15:31:09;28.10;99.90
15777;DHT22;7989;51.198;6.676;2022-08-19T15:33:39;28.30;99.90
15777;DHT22;7989;51.198;6.676;2022-08-19T15:36:07;28.30;99.90
15777;DHT22;7989;51.198;6.676;2022-08-19T15:38:35;28.30;99.90
15777;DHT22;7989;51.198;6.676;2022-08-19T15:41:03;28.00;99.90
15777;DHT22;7989;51.198;6.676;2022-08-19T15:43:46;28.00;99.90
15777;DHT22;7989;51.198;6.676;2022-08-19T15:46:16;27.80;99.90
15777;DHT22;7989;51.198;6.676;2022-08-19T15:48:43;27.90;99.90
15777;DHT22;7989;51.198;6.676;2022-08-19T15:51:10;28.00;99.90
15777;DHT22;7989;51.198;6.676;2022-08-19T15:53:37;28.00;99.90